createdAt,value
2023-02-15T00:00:18.409Z,39.47
2023-02-15T00:01:21.245Z,40.40
2023-02-15T00:02:23.165Z,37.47
2023-02-15T00:03:26.144Z,37.10
2023-02-15T00:04:47.055Z,39.28
2023-02-15T00:05:49.014Z,38.95
2023-02-15T00:06:52.006Z,37.83
2023-02-15T00:07:53.922Z,31.02
2023-02-15T00:08:57.189Z,32.45
2023-02-15T00:10:00.389Z,30.95
2023-02-15T00:11:07.765Z,29.88
2023-02-15T00:12:10.099Z,30.95
2023-02-15T00:13:13.245Z,32.28
2023-02-15T00:14:17.113Z,31.83
2023-02-15T00:15:19.881Z,30.98
2023-02-15T00:16:21.695Z,30.05
2023-02-15T00:17:24.602Z,32.38
2023-02-15T00:18:26.483Z,30.48
2023-02-15T00:19:29.284Z,29.65
2023-02-15T00:20:31.213Z,30.88
2023-02-15T00:21:35.055Z,31.05
2023-02-15T00:22:37.784Z,30.17
2023-02-15T00:23:39.805Z,30.65
2023-02-15T00:24:42.793Z,30.33
2023-02-15T00:25:46.002Z,28.77
2023-02-15T00:27:07.381Z,32.45
2023-02-15T00:28:09.244Z,32.47
2023-02-15T00:29:13.325Z,36.13
2023-02-15T00:30:16.274Z,36.03
2023-02-15T00:31:18.393Z,35.45
2023-02-15T00:32:21.230Z,34.05
2023-02-15T00:33:25.963Z,33.35
2023-02-15T00:34:30.149Z,26.98
2023-02-15T00:35:32.402Z,28.08
2023-02-15T00:36:35.511Z,27.63
2023-02-15T00:37:37.357Z,26.27
2023-02-15T00:38:58.829Z,26.83
2023-02-15T00:40:20.172Z,31.38
2023-02-15T00:41:44.392Z,27.83
2023-02-15T00:42:47.927Z,31.27
2023-02-15T00:43:50.508Z,32.75
2023-02-15T00:44:53.547Z,32.88
2023-02-15T00:45:56.479Z,32.10
2023-02-15T00:46:59.285Z,32.03
2023-02-15T00:48:01.140Z,31.23
2023-02-15T00:49:04.228Z,33.55
2023-02-15T00:50:07.445Z,32.85
2023-02-15T00:51:10.303Z,31.92
2023-02-15T00:52:13.172Z,31.80
2023-02-15T00:53:14.935Z,32.58
2023-02-15T00:54:18.181Z,31.02
2023-02-15T00:55:19.964Z,31.27
2023-02-15T00:56:23.440Z,30.90
2023-02-15T00:57:27.270Z,30.05
2023-02-15T00:58:30.141Z,29.85
2023-02-15T00:59:32.942Z,32.15
2023-02-15T01:00:34.868Z,31.08
2023-02-15T01:01:37.691Z,32.45
2023-02-15T01:02:39.549Z,39.05
2023-02-15T01:03:42.479Z,33.97
2023-02-15T01:04:44.953Z,34.10
2023-02-15T01:05:49.441Z,32.72
2023-02-15T01:06:51.299Z,33.17
2023-02-15T01:07:54.701Z,32.65
2023-02-15T01:08:56.528Z,32.97
2023-02-15T01:09:59.348Z,31.67
2023-02-15T01:11:05.168Z,33.60
2023-02-15T01:12:07.947Z,32.08
2023-02-15T01:13:11.403Z,30.35
2023-02-15T01:14:15.504Z,30.17
2023-02-15T01:15:17.501Z,30.02
2023-02-15T01:16:20.419Z,30.15
2023-02-15T01:17:22.296Z,30.48
2023-02-15T01:18:25.116Z,29.85
2023-02-15T01:19:27.462Z,29.48
2023-02-15T01:20:30.911Z,29.23
2023-02-15T01:21:35.312Z,28.73
2023-02-15T01:22:39.599Z,30.17
2023-02-15T01:23:42.041Z,29.65
2023-02-15T01:24:44.973Z,29.27
2023-02-15T01:25:47.184Z,28.33
2023-02-15T01:26:49.934Z,28.67
2023-02-15T01:27:51.772Z,28.10
2023-02-15T01:28:55.940Z,28.50
2023-02-15T01:29:58.718Z,27.70
2023-02-15T01:31:01.565Z,28.83
2023-02-15T01:32:03.930Z,29.13
2023-02-15T01:33:06.812Z,27.55
2023-02-15T01:34:08.731Z,28.55
2023-02-15T01:35:12.532Z,29.02
2023-02-15T01:36:14.464Z,29.60
2023-02-15T01:37:17.271Z,29.48
2023-02-15T01:38:19.459Z,28.55
2023-02-15T01:39:22.224Z,29.13
2023-02-15T01:40:43.196Z,29.33
2023-02-15T01:42:07.355Z,30.20
2023-02-15T01:43:12.910Z,28.95
2023-02-15T01:44:49.959Z,28.48
2023-02-15T01:45:51.843Z,27.90
2023-02-15T01:46:55.350Z,27.02
2023-02-15T01:48:00.062Z,28.20
2023-02-15T01:49:05.412Z,27.67
2023-02-15T01:50:11.506Z,25.40
2023-02-15T01:51:15.216Z,32.15
2023-02-15T01:52:18.766Z,31.70
2023-02-15T01:53:24.105Z,29.75
2023-02-15T01:54:28.989Z,30.23
2023-02-15T01:55:36.181Z,28.40
2023-02-15T01:56:39.981Z,26.95
2023-02-15T01:57:43.085Z,28.73
2023-02-15T01:58:45.419Z,28.80
2023-02-15T01:59:53.745Z,26.52
2023-02-15T02:01:00.272Z,26.05
2023-02-15T02:02:05.403Z,24.92
2023-02-15T02:03:07.277Z,25.27
2023-02-15T02:04:13.785Z,25.13
2023-02-15T02:05:16.076Z,26.50
2023-02-15T02:06:21.886Z,26.50
2023-02-15T02:07:25.444Z,25.90
2023-02-15T02:08:28.294Z,26.38
2023-02-15T02:09:30.590Z,27.45
2023-02-15T02:10:33.401Z,27.80
2023-02-15T02:11:36.335Z,27.45
2023-02-15T02:12:40.874Z,26.33
2023-02-15T02:13:45.576Z,23.33
2023-02-15T02:14:50.544Z,25.85
2023-02-15T02:15:57.697Z,26.05
2023-02-15T02:17:07.538Z,26.60
2023-02-15T02:18:19.819Z,25.98
2023-02-15T02:19:50.504Z,27.20
2023-02-15T02:21:02.828Z,24.23
2023-02-15T02:22:44.309Z,22.98
2023-02-15T02:23:56.139Z,22.08
2023-02-15T02:25:30.580Z,25.55
2023-02-15T02:27:05.356Z,26.58
2023-02-15T02:28:20.519Z,28.52
2023-02-15T02:29:34.737Z,26.50
2023-02-15T02:30:51.795Z,27.60
2023-02-15T02:32:11.777Z,27.92
2023-02-15T02:33:28.390Z,28.65
2023-02-15T02:34:31.748Z,26.95
2023-02-15T02:35:39.494Z,27.95
2023-02-15T02:36:47.542Z,28.58
2023-02-15T02:37:56.499Z,27.17
2023-02-15T02:39:08.984Z,27.50
2023-02-15T02:40:15.635Z,28.25
2023-02-15T02:41:27.294Z,28.95
2023-02-15T02:42:37.201Z,30.10
2023-02-15T02:43:43.357Z,29.10
2023-02-15T02:44:49.840Z,28.25
2023-02-15T02:45:54.543Z,25.63
2023-02-15T02:47:00.469Z,27.05
2023-02-15T02:48:08.834Z,24.20
2023-02-15T02:49:13.584Z,26.17
2023-02-15T02:50:17.767Z,26.15
2023-02-15T02:51:23.036Z,25.75
2023-02-15T02:52:39.922Z,24.98
2023-02-15T02:53:42.717Z,24.90
2023-02-15T02:54:44.540Z,23.83
2023-02-15T02:55:49.667Z,23.65
2023-02-15T02:56:52.193Z,23.98
2023-02-15T02:57:57.869Z,23.60
2023-02-15T02:59:03.626Z,23.75
2023-02-15T03:00:09.460Z,23.02
2023-02-15T03:01:14.559Z,23.90
2023-02-15T03:02:21.140Z,23.55
2023-02-15T03:03:27.428Z,23.73
2023-02-15T03:04:34.181Z,22.75
2023-02-15T03:05:39.756Z,22.27
2023-02-15T03:06:44.551Z,21.08
2023-02-15T03:07:50.094Z,19.70
2023-02-15T03:08:57.576Z,21.90
2023-02-15T03:10:02.086Z,22.48
2023-02-15T03:11:07.269Z,21.48
2023-02-15T03:12:10.539Z,21.85
2023-02-15T03:13:17.418Z,21.75
2023-02-15T03:14:19.963Z,23.40
2023-02-15T03:15:26.107Z,22.25
2023-02-15T03:16:29.648Z,24.00
2023-02-15T03:17:33.270Z,24.80
2023-02-15T03:18:38.060Z,24.45
2023-02-15T03:19:42.576Z,23.55
2023-02-15T03:20:45.135Z,25.42
2023-02-15T03:21:58.447Z,23.50
2023-02-15T03:23:02.813Z,22.52
2023-02-15T03:24:10.297Z,23.27
2023-02-15T03:25:14.691Z,23.75
2023-02-15T03:26:18.182Z,24.35
2023-02-15T03:27:24.851Z,24.27
2023-02-15T03:28:30.568Z,24.08
2023-02-15T03:29:35.410Z,25.05
2023-02-15T03:30:39.292Z,24.77
2023-02-15T03:31:44.189Z,23.95
2023-02-15T03:32:47.575Z,24.55
2023-02-15T03:33:55.943Z,25.65
2023-02-15T03:34:59.138Z,27.92
2023-02-15T03:36:04.539Z,25.35
2023-02-15T03:37:10.948Z,25.08
2023-02-15T03:38:16.506Z,27.70
2023-02-15T03:39:21.133Z,25.63
2023-02-15T03:40:43.703Z,26.15
2023-02-15T03:41:52.507Z,26.58
2023-02-15T03:42:59.055Z,25.38
2023-02-15T03:44:03.237Z,26.92
2023-02-15T03:45:08.688Z,25.63
2023-02-15T03:46:15.312Z,25.83
2023-02-15T03:47:20.036Z,25.23
2023-02-15T03:48:24.194Z,27.08
2023-02-15T03:49:30.698Z,24.10
2023-02-15T03:50:55.596Z,25.05
2023-02-15T03:51:59.777Z,23.98
2023-02-15T03:53:03.149Z,22.10
2023-02-15T03:54:08.934Z,23.25
2023-02-15T03:55:11.895Z,22.52
2023-02-15T03:56:13.731Z,23.27
2023-02-15T03:57:38.170Z,24.63
2023-02-15T03:58:58.465Z,23.45
2023-02-15T04:00:19.777Z,22.63
2023-02-15T04:01:59.032Z,22.10
2023-02-15T04:03:22.629Z,19.00
2023-02-15T04:04:27.464Z,16.88
2023-02-15T04:05:30.204Z,17.67
2023-02-15T04:06:33.331Z,19.23
2023-02-15T04:07:36.495Z,18.23
2023-02-15T04:08:59.095Z,18.67
2023-02-15T04:10:19.628Z,18.08
2023-02-15T04:11:21.465Z,18.77
2023-02-15T04:12:24.212Z,19.77
2023-02-15T04:13:32.970Z,18.67
2023-02-15T04:14:53.625Z,17.63
2023-02-15T04:16:04.857Z,15.75
2023-02-15T04:17:08.925Z,15.48
2023-02-15T04:18:11.872Z,17.25
2023-02-15T04:19:32.312Z,18.65
2023-02-15T04:20:52.788Z,15.43
2023-02-15T04:22:14.114Z,15.95
2023-02-15T04:23:34.229Z,17.60
2023-02-15T04:24:54.571Z,17.52
2023-02-15T04:25:57.722Z,15.73
2023-02-15T04:27:00.286Z,18.15
2023-02-15T04:28:03.014Z,17.70
2023-02-15T04:29:05.079Z,17.90
2023-02-15T04:30:09.211Z,16.90
2023-02-15T04:31:12.089Z,18.63
2023-02-15T04:32:14.082Z,19.00
2023-02-15T04:33:16.901Z,18.33
2023-02-15T04:34:18.957Z,19.55
2023-02-15T04:35:21.815Z,19.67
2023-02-15T04:36:23.635Z,20.30
2023-02-15T04:37:27.989Z,19.48
2023-02-15T04:38:29.837Z,18.02
2023-02-15T04:39:33.122Z,20.45
2023-02-15T04:40:35.005Z,18.48
2023-02-15T04:41:37.876Z,18.50
2023-02-15T04:42:40.126Z,18.60
2023-02-15T04:43:42.918Z,17.75
2023-02-15T04:44:44.790Z,18.67
2023-02-15T04:45:50.999Z,18.20
2023-02-15T04:46:53.062Z,18.63
2023-02-15T04:47:55.910Z,17.65
2023-02-15T04:48:57.741Z,18.08
2023-02-15T04:50:00.505Z,18.70
2023-02-15T04:51:06.367Z,19.23
2023-02-15T04:52:09.088Z,20.77
2023-02-15T04:53:13.490Z,17.90
2023-02-15T04:54:15.288Z,19.20
2023-02-15T04:55:18.161Z,19.48
2023-02-15T04:56:20.419Z,19.00
2023-02-15T04:57:23.624Z,18.35
2023-02-15T04:58:25.440Z,19.45
2023-02-15T04:59:28.195Z,18.33
2023-02-15T05:00:30.983Z,18.73
2023-02-15T05:01:32.782Z,18.63
2023-02-15T05:02:35.512Z,19.27
2023-02-15T05:03:37.792Z,17.63
2023-02-15T05:04:40.516Z,19.25
2023-02-15T05:05:43.311Z,20.02
2023-02-15T05:06:45.207Z,19.83
2023-02-15T05:07:48.021Z,19.58
2023-02-15T05:08:51.463Z,19.98
2023-02-15T05:09:54.229Z,19.55
2023-02-15T05:10:56.156Z,18.38
2023-02-15T05:11:59.049Z,19.48
2023-02-15T05:13:00.918Z,19.20
2023-02-15T05:14:03.664Z,19.00
2023-02-15T05:15:05.947Z,18.73
2023-02-15T05:16:08.797Z,19.45
2023-02-15T05:17:10.643Z,17.33
2023-02-15T05:18:13.377Z,18.52
2023-02-15T05:19:15.317Z,18.92
2023-02-15T05:20:19.512Z,19.02
2023-02-15T05:21:21.264Z,19.10
2023-02-15T05:22:24.126Z,19.63
2023-02-15T05:23:25.977Z,20.58
2023-02-15T05:24:47.507Z,22.05
2023-02-15T05:26:08.252Z,17.70
2023-02-15T05:27:30.017Z,21.00
2023-02-15T05:28:32.856Z,20.65
2023-02-15T05:29:34.702Z,20.92
2023-02-15T05:30:37.638Z,20.40
2023-02-15T05:31:39.800Z,20.00
2023-02-15T05:32:42.904Z,20.02
2023-02-15T05:33:45.322Z,22.42
2023-02-15T05:34:48.158Z,21.38
2023-02-15T05:35:49.946Z,20.50
2023-02-15T05:36:52.823Z,19.50
2023-02-15T05:37:54.946Z,18.65
2023-02-15T05:38:57.886Z,20.75
2023-02-15T05:40:01.029Z,19.48
2023-02-15T05:41:03.939Z,19.77
2023-02-15T05:42:05.802Z,20.73
2023-02-15T05:43:08.622Z,18.75
2023-02-15T05:44:10.678Z,19.77
2023-02-15T05:45:13.466Z,21.15
2023-02-15T05:46:15.428Z,18.80
2023-02-15T05:47:18.334Z,21.23
2023-02-15T05:48:22.335Z,20.95
2023-02-15T05:49:24.138Z,20.30
2023-02-15T05:50:27.093Z,19.38
2023-02-15T05:51:28.944Z,19.30
2023-02-15T05:52:31.753Z,19.58
2023-02-15T05:53:35.721Z,19.42
2023-02-15T05:54:38.469Z,17.70
2023-02-15T05:55:41.833Z,17.73
2023-02-15T05:56:44.854Z,19.10
2023-02-15T05:57:46.626Z,19.35
2023-02-15T05:58:49.448Z,20.00
2023-02-15T05:59:51.303Z,22.42
2023-02-15T06:00:54.105Z,21.05
2023-02-15T06:01:55.868Z,18.30
2023-02-15T06:02:59.040Z,22.55
2023-02-15T06:04:01.837Z,21.60
2023-02-15T06:05:03.852Z,21.02
2023-02-15T06:06:07.369Z,19.98
2023-02-15T06:07:09.144Z,20.60
2023-02-15T06:08:11.971Z,23.13
2023-02-15T06:09:14.964Z,20.00
2023-02-15T06:10:17.951Z,20.63
2023-02-15T06:11:21.378Z,20.13
2023-02-15T06:12:24.128Z,19.25
2023-02-15T06:13:26.480Z,19.80
2023-02-15T06:14:29.548Z,18.27
2023-02-15T06:15:31.401Z,17.33
2023-02-15T06:16:34.162Z,18.63
2023-02-15T06:17:35.969Z,18.35
2023-02-15T06:18:38.806Z,18.13
2023-02-15T06:19:40.647Z,18.83
2023-02-15T06:20:43.394Z,21.63
2023-02-15T06:21:45.217Z,24.77
2023-02-15T06:22:48.270Z,24.27
2023-02-15T06:23:51.049Z,24.73
2023-02-15T06:24:54.552Z,22.88
2023-02-15T06:25:57.392Z,20.13
2023-02-15T06:27:00.512Z,21.02
2023-02-15T06:28:03.601Z,21.40
2023-02-15T06:29:06.491Z,21.60
2023-02-15T06:30:09.754Z,22.30
2023-02-15T06:31:12.629Z,22.95
2023-02-15T06:32:14.492Z,22.52
2023-02-15T06:33:17.265Z,21.23
2023-02-15T06:34:19.118Z,24.05
2023-02-15T06:35:22.940Z,23.58
2023-02-15T06:36:25.788Z,24.50
2023-02-15T06:37:27.671Z,22.85
2023-02-15T06:38:30.386Z,22.52
2023-02-15T06:39:51.636Z,23.98
2023-02-15T06:40:53.877Z,20.48
2023-02-15T06:41:56.689Z,19.90
2023-02-15T06:42:59.823Z,20.70
2023-02-15T06:44:02.723Z,21.75
2023-02-15T06:45:05.374Z,23.25
2023-02-15T06:46:09.378Z,23.30
2023-02-15T06:47:11.673Z,23.02
2023-02-15T06:48:14.542Z,22.70
2023-02-15T06:49:17.350Z,22.83
2023-02-15T06:50:19.862Z,24.08
2023-02-15T06:51:22.632Z,24.08
2023-02-15T06:52:24.598Z,24.77
2023-02-15T06:53:27.456Z,24.13
2023-02-15T06:54:29.260Z,23.25
2023-02-15T06:55:32.146Z,23.73
2023-02-15T06:56:53.666Z,22.00
2023-02-15T06:57:56.532Z,22.10
2023-02-15T06:59:00.690Z,23.63
2023-02-15T07:00:05.731Z,24.52
2023-02-15T07:01:09.362Z,24.55
2023-02-15T07:02:13.535Z,25.65
2023-02-15T07:03:16.755Z,23.50
2023-02-15T07:04:19.702Z,23.80
2023-02-15T07:05:21.585Z,24.55
2023-02-15T07:06:24.369Z,26.70
2023-02-15T07:07:27.622Z,24.02
2023-02-15T07:08:29.800Z,23.90
2023-02-15T07:09:32.532Z,22.92
2023-02-15T07:10:34.638Z,24.45
2023-02-15T07:11:54.656Z,25.08
2023-02-15T07:12:57.480Z,27.15
2023-02-15T07:14:00.670Z,24.42
2023-02-15T07:15:07.692Z,25.45
2023-02-15T07:16:09.698Z,23.65
2023-02-15T07:17:32.868Z,23.27
2023-02-15T07:18:35.278Z,24.25
2023-02-15T07:19:37.511Z,22.88
2023-02-15T07:20:42.563Z,24.02
2023-02-15T07:21:46.386Z,25.05
2023-02-15T07:22:49.730Z,25.25
2023-02-15T07:23:52.963Z,24.35
2023-02-15T07:24:55.798Z,25.00
2023-02-15T07:25:59.192Z,25.38
2023-02-15T07:27:01.173Z,23.85
2023-02-15T07:28:05.867Z,23.90
2023-02-15T07:29:09.035Z,25.35
2023-02-15T07:30:13.746Z,25.50
2023-02-15T07:31:15.612Z,25.02
2023-02-15T07:32:18.473Z,24.65
2023-02-15T07:33:28.053Z,26.27
2023-02-15T07:34:31.129Z,25.00
2023-02-15T07:35:32.906Z,27.52
2023-02-15T07:36:36.459Z,26.50
2023-02-15T07:37:39.236Z,24.67
2023-02-15T07:38:43.434Z,24.52
2023-02-15T07:39:46.366Z,25.38
2023-02-15T07:40:48.427Z,25.05
2023-02-15T07:41:51.170Z,24.27
2023-02-15T07:42:55.886Z,22.80
2023-02-15T07:43:57.807Z,23.13
2023-02-15T07:45:01.982Z,24.92
2023-02-15T07:46:08.339Z,24.05
2023-02-15T07:47:10.203Z,24.40
2023-02-15T07:48:12.959Z,24.52
2023-02-15T07:49:16.647Z,24.23
2023-02-15T07:50:18.623Z,23.70
2023-02-15T07:51:21.409Z,25.75
2023-02-15T07:52:24.660Z,24.23
2023-02-15T07:53:27.462Z,26.25
2023-02-15T07:54:30.285Z,23.83
2023-02-15T07:55:33.186Z,25.88
2023-02-15T07:56:37.174Z,26.30
2023-02-15T07:57:42.251Z,26.08
2023-02-15T07:58:54.892Z,23.80
2023-02-15T07:59:57.655Z,23.17
2023-02-15T08:01:05.110Z,23.77
2023-02-15T08:02:10.535Z,24.45
2023-02-15T08:03:15.274Z,24.38
2023-02-15T08:04:19.058Z,23.73
2023-02-15T08:05:20.853Z,23.52
2023-02-15T08:06:24.683Z,24.33
2023-02-15T08:07:27.462Z,23.00
2023-02-15T08:08:32.641Z,23.13
2023-02-15T08:09:35.490Z,23.23
2023-02-15T08:10:55.607Z,24.05
2023-02-15T08:11:58.811Z,22.83
2023-02-15T08:13:00.566Z,23.40
2023-02-15T08:14:04.891Z,23.77
2023-02-15T08:15:08.241Z,20.95
2023-02-15T08:16:14.230Z,23.58
2023-02-15T08:17:17.150Z,23.45
2023-02-15T08:18:19.302Z,22.77
2023-02-15T08:19:24.153Z,22.85
2023-02-15T08:20:25.944Z,22.20
2023-02-15T08:21:30.058Z,23.73
2023-02-15T08:22:32.819Z,24.45
2023-02-15T08:23:34.553Z,24.17
2023-02-15T08:24:38.883Z,22.05
2023-02-15T08:25:40.770Z,24.10
2023-02-15T08:26:43.879Z,22.35
2023-02-15T08:27:47.145Z,21.27
2023-02-15T08:28:49.938Z,21.55
2023-02-15T08:29:52.836Z,20.90
2023-02-15T08:30:54.822Z,21.90
2023-02-15T08:32:03.050Z,21.70
2023-02-15T08:33:06.158Z,24.52
2023-02-15T08:34:10.051Z,22.88
2023-02-15T08:35:12.830Z,22.73
2023-02-15T08:36:18.086Z,20.45
2023-02-15T08:37:21.219Z,21.05
2023-02-15T08:38:23.078Z,20.65
2023-02-15T08:39:25.909Z,22.00
2023-02-15T08:40:28.125Z,25.55
2023-02-15T08:41:32.477Z,22.92
2023-02-15T08:42:34.288Z,22.98
2023-02-15T08:43:37.257Z,23.02
2023-02-15T08:44:40.013Z,19.92
2023-02-15T08:45:42.498Z,21.38
2023-02-15T08:47:05.294Z,21.80
2023-02-15T08:48:07.165Z,21.60
2023-02-15T08:49:10.679Z,23.85
2023-02-15T08:50:13.562Z,20.67
2023-02-15T08:51:16.589Z,21.55
2023-02-15T08:52:19.719Z,20.15
2023-02-15T08:53:22.589Z,20.67
2023-02-15T08:54:25.629Z,20.88
2023-02-15T08:55:27.771Z,21.98
2023-02-15T08:56:32.800Z,19.63
2023-02-15T08:57:35.688Z,19.08
2023-02-15T08:58:38.066Z,21.42
2023-02-15T08:59:40.995Z,20.02
2023-02-15T09:00:42.769Z,20.77
2023-02-15T09:01:46.462Z,20.15
2023-02-15T09:02:49.908Z,17.42
2023-02-15T09:03:54.606Z,18.95
2023-02-15T09:04:57.356Z,19.65
2023-02-15T09:06:00.173Z,19.35
2023-02-15T09:07:05.413Z,19.40
2023-02-15T09:08:07.173Z,18.05
2023-02-15T09:09:10.780Z,19.42
2023-02-15T09:10:12.628Z,17.00
2023-02-15T09:11:24.913Z,17.65
2023-02-15T09:12:27.755Z,16.88
2023-02-15T09:13:29.600Z,17.70
2023-02-15T09:14:32.769Z,17.45
2023-02-15T09:15:34.717Z,17.42
2023-02-15T09:16:39.326Z,18.42
2023-02-15T09:17:41.133Z,17.73
2023-02-15T09:18:45.595Z,18.08
2023-02-15T09:19:48.326Z,20.17
2023-02-15T09:20:50.187Z,18.05
2023-02-15T09:21:53.394Z,19.65
2023-02-15T09:22:58.085Z,18.33
2023-02-15T09:24:03.166Z,18.10
2023-02-15T09:25:05.638Z,19.17
2023-02-15T09:26:09.866Z,20.02
2023-02-15T09:27:13.093Z,20.65
2023-02-15T09:28:15.158Z,20.73
2023-02-15T09:29:19.258Z,19.95
2023-02-15T09:30:22.188Z,21.40
2023-02-15T09:31:26.406Z,18.83
2023-02-15T09:32:29.237Z,19.42
2023-02-15T09:33:31.050Z,19.75
2023-02-15T09:34:35.388Z,22.13
2023-02-15T09:35:37.145Z,20.63
2023-02-15T09:36:41.201Z,20.73
2023-02-15T09:37:43.004Z,18.27
2023-02-15T09:38:46.085Z,17.70
2023-02-15T09:39:49.252Z,16.80
2023-02-15T09:40:58.663Z,18.98
2023-02-15T09:42:35.019Z,20.40
2023-02-15T09:43:40.192Z,19.63
2023-02-15T09:45:00.856Z,19.85
2023-02-15T09:46:17.893Z,20.70
2023-02-15T09:47:32.423Z,18.48
2023-02-15T09:48:46.471Z,19.42
2023-02-15T09:49:56.987Z,20.02
2023-02-15T09:51:09.698Z,20.17
2023-02-15T09:52:22.338Z,19.50
2023-02-15T09:53:38.825Z,18.23
2023-02-15T09:54:50.471Z,20.58
2023-02-15T09:55:56.682Z,19.30
2023-02-15T09:57:01.681Z,19.17
2023-02-15T09:58:10.553Z,18.55
2023-02-15T09:59:18.832Z,18.65
2023-02-15T10:00:28.513Z,25.55
2023-02-15T10:01:55.548Z,18.13
2023-02-15T10:03:14.003Z,19.58
2023-02-15T10:04:28.066Z,18.25
2023-02-15T10:05:40.503Z,17.75
2023-02-15T10:06:46.237Z,18.73
2023-02-15T10:08:08.353Z,18.58
2023-02-15T10:09:18.562Z,16.60
2023-02-15T10:10:28.070Z,17.25
2023-02-15T10:11:40.657Z,16.75
2023-02-15T10:12:55.773Z,19.73
2023-02-15T10:14:08.400Z,19.33
2023-02-15T10:15:30.618Z,17.65
2023-02-15T10:16:41.425Z,18.17
2023-02-15T10:17:53.151Z,18.40
2023-02-15T10:18:58.288Z,17.38
2023-02-15T10:20:12.041Z,18.00
2023-02-15T10:21:24.807Z,17.95
2023-02-15T10:22:31.692Z,18.10
2023-02-15T10:23:49.581Z,18.52
2023-02-15T10:25:17.413Z,17.77
2023-02-15T10:26:23.711Z,18.00
2023-02-15T10:27:27.178Z,17.95
2023-02-15T10:28:33.917Z,18.67
2023-02-15T10:29:37.562Z,18.48
2023-02-15T10:30:45.840Z,17.92
2023-02-15T10:31:49.722Z,17.65
2023-02-15T10:33:01.494Z,17.17
2023-02-15T10:34:16.554Z,16.77
2023-02-15T10:35:24.444Z,16.58
2023-02-15T10:36:40.183Z,15.98
2023-02-15T10:37:54.802Z,16.15
2023-02-15T10:39:04.533Z,17.02
2023-02-15T10:40:12.939Z,16.15
2023-02-15T10:41:25.950Z,16.00
2023-02-15T10:42:32.927Z,14.88
2023-02-15T10:43:59.155Z,15.27
2023-02-15T10:45:15.607Z,17.20
2023-02-15T10:46:31.035Z,16.08
2023-02-15T10:47:58.586Z,15.40
2023-02-15T10:49:25.581Z,18.73
2023-02-15T10:50:43.063Z,19.77
2023-02-15T10:51:55.494Z,16.42
2023-02-15T10:53:09.878Z,17.15
2023-02-15T10:54:22.278Z,15.52
2023-02-15T10:55:35.926Z,16.73
2023-02-15T10:56:48.591Z,16.77
2023-02-15T10:57:54.542Z,15.35
2023-02-15T10:59:07.609Z,15.20
2023-02-15T11:00:13.952Z,15.88
2023-02-15T11:01:22.355Z,15.00
2023-02-15T11:02:31.886Z,14.68
2023-02-15T11:03:45.826Z,14.95
2023-02-15T11:04:55.197Z,16.42
2023-02-15T11:06:03.424Z,17.80
2023-02-15T11:07:10.030Z,17.20
2023-02-15T11:08:14.007Z,16.08
2023-02-15T11:09:19.165Z,16.67
2023-02-15T11:10:27.850Z,18.23
2023-02-15T11:11:33.499Z,17.58
2023-02-15T11:12:36.291Z,16.88
2023-02-15T11:13:40.685Z,17.17
2023-02-15T11:14:49.026Z,16.27
2023-02-15T11:15:53.656Z,18.35
2023-02-15T11:17:01.524Z,16.48
2023-02-15T11:18:10.454Z,16.58
2023-02-15T11:19:15.896Z,16.42
2023-02-15T11:20:21.909Z,17.40
2023-02-15T11:21:26.637Z,16.48
2023-02-15T11:22:31.178Z,16.17
2023-02-15T11:23:35.867Z,16.67
2023-02-15T11:24:43.522Z,16.65
2023-02-15T11:25:48.062Z,16.05
2023-02-15T11:26:57.640Z,16.33
2023-02-15T11:27:59.883Z,17.27
2023-02-15T11:29:08.890Z,19.95
2023-02-15T11:30:14.923Z,20.33
2023-02-15T11:31:19.963Z,17.38
2023-02-15T11:32:26.030Z,21.02
2023-02-15T11:33:31.776Z,18.30
2023-02-15T11:34:37.437Z,19.00
2023-02-15T11:35:47.432Z,16.52
2023-02-15T11:36:52.692Z,17.27
2023-02-15T11:38:01.098Z,18.05
2023-02-15T11:39:06.221Z,16.98
2023-02-15T11:40:19.000Z,19.38
2023-02-15T11:41:25.379Z,17.88
2023-02-15T11:42:28.665Z,16.85
2023-02-15T11:43:36.696Z,18.02
2023-02-15T11:44:40.689Z,18.17
2023-02-15T11:45:44.762Z,16.35
2023-02-15T11:46:48.010Z,18.55
2023-02-15T11:47:49.982Z,18.05
2023-02-15T11:48:52.732Z,16.60
2023-02-15T11:49:54.727Z,18.20
2023-02-15T11:50:58.389Z,16.35
2023-02-15T11:52:03.047Z,17.05
2023-02-15T11:53:11.550Z,15.77
2023-02-15T11:54:14.323Z,15.45
2023-02-15T11:55:22.256Z,16.70
2023-02-15T11:56:27.279Z,17.05
2023-02-15T11:57:34.719Z,15.60
2023-02-15T11:58:41.531Z,15.32
2023-02-15T11:59:48.060Z,16.58
2023-02-15T12:00:53.285Z,17.13
2023-02-15T12:01:56.041Z,15.73
2023-02-15T12:02:58.744Z,17.08
2023-02-15T12:04:04.169Z,16.17
2023-02-15T12:05:11.595Z,15.25
2023-02-15T12:06:19.662Z,15.98
2023-02-15T12:07:26.509Z,14.70
2023-02-15T12:08:37.083Z,16.48
2023-02-15T12:09:47.698Z,15.10
2023-02-15T12:10:58.897Z,16.33
2023-02-15T12:12:23.587Z,16.50
2023-02-15T12:13:25.396Z,15.65
2023-02-15T12:14:28.740Z,15.23
2023-02-15T12:15:31.839Z,16.75
2023-02-15T12:16:42.430Z,15.32
2023-02-15T12:17:52.125Z,15.30
2023-02-15T12:18:54.915Z,15.50
2023-02-15T12:19:59.508Z,14.10
2023-02-15T12:21:02.536Z,17.15
2023-02-15T12:22:09.281Z,14.77
2023-02-15T12:23:14.263Z,14.88
2023-02-15T12:24:20.586Z,16.35
2023-02-15T12:25:34.229Z,12.82
2023-02-15T12:26:37.480Z,14.02
2023-02-15T12:27:44.719Z,13.98
2023-02-15T12:28:53.031Z,14.63
2023-02-15T12:29:58.463Z,13.68
2023-02-15T12:31:02.656Z,15.68
2023-02-15T12:32:06.173Z,15.65
2023-02-15T12:33:17.427Z,14.02
2023-02-15T12:34:24.339Z,15.40
2023-02-15T12:35:29.885Z,16.23
2023-02-15T12:36:35.374Z,13.45
2023-02-15T12:37:37.269Z,13.27
2023-02-15T12:38:41.161Z,14.98
2023-02-15T12:39:54.176Z,13.65
2023-02-15T12:41:02.346Z,13.63
2023-02-15T12:42:10.566Z,13.20
2023-02-15T12:43:27.158Z,12.73
2023-02-15T12:44:30.869Z,11.50
2023-02-15T12:45:35.079Z,13.27
2023-02-15T12:46:38.440Z,13.05
2023-02-15T12:47:41.350Z,13.88
2023-02-15T12:48:44.108Z,12.90
2023-02-15T12:50:12.300Z,13.13
2023-02-15T12:51:17.158Z,13.88
2023-02-15T12:52:25.981Z,13.15
2023-02-15T12:53:34.138Z,12.70
2023-02-15T12:54:41.044Z,11.40
2023-02-15T12:55:54.386Z,12.52
2023-02-15T12:56:58.200Z,11.70
2023-02-15T12:58:14.875Z,11.25
2023-02-15T12:59:23.155Z,11.57
2023-02-15T13:00:32.835Z,11.07
2023-02-15T13:01:34.732Z,11.80
2023-02-15T13:02:43.701Z,10.00
2023-02-15T13:03:58.363Z,10.75
2023-02-15T13:05:14.667Z,14.50
2023-02-15T13:06:19.460Z,11.07
2023-02-15T13:07:22.634Z,10.80
2023-02-15T13:08:30.314Z,11.48
2023-02-15T13:09:40.512Z,10.95
2023-02-15T13:10:45.230Z,9.88
2023-02-15T13:11:48.546Z,10.20
2023-02-15T13:12:54.927Z,11.82
2023-02-15T13:14:00.491Z,11.43
2023-02-15T13:15:05.542Z,12.10
2023-02-15T13:16:12.158Z,10.27
2023-02-15T13:17:16.395Z,11.68
2023-02-15T13:18:22.078Z,9.35
2023-02-15T13:19:31.292Z,9.68
2023-02-15T13:20:37.302Z,9.57
2023-02-15T13:21:43.181Z,10.80
2023-02-15T13:22:48.084Z,9.60
2023-02-15T13:23:53.724Z,11.55
2023-02-15T13:24:58.061Z,10.30
2023-02-15T13:26:02.078Z,10.82
2023-02-15T13:27:14.917Z,14.57
2023-02-15T13:28:20.224Z,19.60
2023-02-15T13:29:24.383Z,11.82
2023-02-15T13:30:30.038Z,11.60
2023-02-15T13:31:33.622Z,11.25
2023-02-15T13:32:38.864Z,11.98
2023-02-15T13:33:46.337Z,12.77
2023-02-15T13:34:48.378Z,10.50
2023-02-15T13:35:58.716Z,10.50
2023-02-15T13:37:07.107Z,10.80
2023-02-15T13:38:20.286Z,11.63
2023-02-15T13:39:45.255Z,9.52
2023-02-15T13:40:52.747Z,10.27
2023-02-15T13:42:01.719Z,10.43
2023-02-15T13:43:12.899Z,9.88
2023-02-15T13:44:21.883Z,10.80
2023-02-15T13:45:35.736Z,13.68
2023-02-15T13:46:57.818Z,10.05
2023-02-15T13:48:03.061Z,10.70
2023-02-15T13:49:17.578Z,10.65
2023-02-15T13:50:34.065Z,13.23
2023-02-15T13:51:43.289Z,11.50
2023-02-15T13:52:50.654Z,10.60
2023-02-15T13:54:10.686Z,10.35
2023-02-15T13:55:28.804Z,9.60
2023-02-15T13:56:38.095Z,9.25
2023-02-15T13:57:55.693Z,8.93
2023-02-15T13:59:39.638Z,9.38
2023-02-15T14:00:48.091Z,9.73
2023-02-15T14:01:58.156Z,9.20
2023-02-15T14:03:22.410Z,8.80
2023-02-15T14:04:49.610Z,10.13
2023-02-15T14:06:02.505Z,10.02
2023-02-15T14:07:27.554Z,9.15
2023-02-15T14:08:43.232Z,8.60
2023-02-15T14:09:53.598Z,9.13
2023-02-15T14:10:59.677Z,9.15
2023-02-15T14:12:17.674Z,9.23
2023-02-15T14:13:42.424Z,9.65
2023-02-15T14:15:00.816Z,9.40
2023-02-15T14:16:06.412Z,10.13
2023-02-15T14:17:16.901Z,9.00